Current Conditions
Light Rain
Showers



Pressure
1019.92 (mb) - 30.12 (inHG)
Visibility

10.0 (km) - 6.2 (miles)
   Temperature
16  °C
61°F
14  °C
Dewpoint
88  %
 Humidity
   Wind Speed
3  km/h
2  kts
2  mph
0.9  m/s
   Wind Direction
 270°
Due West
   Airport Data
LELN
Location Leon 15 km (9.32 mi)
Metar :LELN 252200Z AUTO 27002KT 9999 RA NSC 16/14 Q1020
Mon 26th August 00:00 am
   Raw Metar Info
Raw METAR is the most common format in the world for the transmission of observational weather data. It is highly standardized through the International Civil Aviation Organization (ICAO), which allows it to be understood throughout most of the world.
   API Info
Data Provided by
https://www.checkwx.com/weather/LELN
   © Info
CSS/SVG/PHP scripts were developed by weather34.com for use in the weather34 template © 2015-2019

Guide Info provided by Metar-Wikipedia